Larnaca, Cyprus
Current Conditions -  °F | °C
As of 7:00 AM on Tuesday 21 Oct 2014 (Local Time) from LCLK Reporting Station
Few Clouds Few Clouds  
Wind Chill: 55°   Ceiling: Unl
Heat Index: 55°   Visibility: 6mi
Dew Point: 39°   Wind: 7mph
Humidity: 54%   Direction: 310°NW
Pressure: 29.94"   Gusts: NA
Location:  34.92°N, 33.63°E
Report Text: LCLK 210400Z 31006KT 9999 FEW020 13/04 Q1014 NOSIG
Loading
Personal Weather Stations






























Interactive Weather Map
Tropical Storm Tracking
New forecast layout! Learn more

10-Day Weather Forecast

Advertisements
Track Severe Weather on mobile